Time;durP1;ratioP1;P1;durP2;ratioP2;P2;SDS_P1;SDS_P2;PMS_P1;PMS_P2;Temp;Humidity;BMP_temperature;BMP_pressure;BME280_temperature;BME280_humidity;BME280_pressure;Samples;Min_cycle;Max_cycle;Signal;HPM_P1;HPM_P2
2022/07/02 00:00:44;;;;;;;2.65;0.90;;;13.90;99.90;;;;;;4954667;28;20558;-80
2022/07/02 00:03:13;;;;;;;6.07;0.60;;;14.00;99.90;;;;;;4955304;28;20476;-80
2022/07/02 00:05:47;;;;;;;3.70;0.80;;;14.00;99.90;;;;;;4955457;28;20027;-80
2022/07/02 00:08:14;;;;;;;2.58;0.55;;;14.00;99.90;;;;;;4955322;28;20440;-80
2022/07/02 00:10:42;;;;;;;3.92;0.55;;;14.00;99.90;;;;;;4948532;28;20015;-81
2022/07/02 00:13:08;;;;;;;3.40;0.85;;;14.00;99.90;;;;;;4954949;28;20038;-80
2022/07/02 00:15:34;;;;;;;4.25;0.73;;;14.00;99.90;;;;;;4955257;28;20023;-80
2022/07/02 00:18:00;;;;;;;4.18;0.90;;;13.90;99.90;;;;;;4955111;28;20761;-80
2022/07/02 00:20:26;;;;;;;3.35;0.60;;;13.80;99.90;;;;;;4954693;28;20027;-80
2022/07/02 00:22:53;;;;;;;1.60;0.70;;;13.70;99.90;;;;;;4954718;28;20030;-80
2022/07/02 00:25:19;;;;;;;5.43;1.02;;;13.70;99.90;;;;;;4954782;28;20487;-80
2022/07/02 00:27:45;;;;;;;6.07;0.75;;;13.60;99.90;;;;;;4954792;28;20027;-80
2022/07/02 00:30:14;;;;;;;3.33;0.50;;;13.60;99.90;;;;;;4954828;28;20024;-81
2022/07/02 00:32:42;;;;;;;6.22;1.23;;;13.60;99.90;;;;;;4954294;28;20043;-81
2022/07/02 00:35:12;;;;;;;4.07;0.60;;;13.50;99.90;;;;;;4954686;28;20019;-81
2022/07/02 00:37:38;;;;;;;2.10;0.60;;;13.50;99.90;;;;;;4954651;28;20027;-81
2022/07/02 00:40:08;;;;;;;2.63;0.63;;;13.40;99.90;;;;;;4954750;28;20027;-81
2022/07/02 00:42:36;;;;;;;1.60;0.60;;;13.50;99.90;;;;;;4954655;28;20354;-81
2022/07/02 00:45:02;;;;;;;2.63;0.50;;;13.50;99.90;;;;;;4953287;28;20392;-80
2022/07/02 00:47:30;;;;;;;2.85;0.90;;;13.50;99.90;;;;;;4954507;28;20041;-81
2022/07/02 00:49:56;;;;;;;2.10;0.68;;;13.40;99.90;;;;;;4954253;28;20030;-80
2022/07/02 00:52:22;;;;;;;2.35;0.68;;;13.40;99.90;;;;;;4954490;28;20043;-80
2022/07/02 00:54:47;;;;;;;5.03;0.70;;;13.30;99.90;;;;;;4954540;28;20086;-80
2022/07/02 00:57:13;;;;;;;1.25;0.50;;;13.20;99.90;;;;;;4954548;28;20126;-80
2022/07/02 00:59:40;;;;;;;3.83;0.50;;;13.20;99.90;;;;;;4961078;28;20019;-81
2022/07/02 02:01:39;;;;;;;4.35;0.95;;;12.80;99.90;;;;;;5581381;23;20051;-79
2022/07/02 02:04:05;;;;;;;3.40;0.90;;;12.90;99.90;;;;;;4953514;28;20034;-82
2022/07/02 02:06:31;;;;;;;1.40;0.68;;;13.00;99.90;;;;;;4953530;28;20027;-80
2022/07/02 02:08:57;;;;;;;0.80;0.60;;;13.10;99.90;;;;;;4953362;28;20050;-81
2022/07/02 02:11:24;;;;;;;0.95;0.60;;;13.20;99.90;;;;;;4952997;28;20383;-80
2022/07/02 02:13:50;;;;;;;1.98;0.60;;;13.20;99.90;;;;;;4953276;28;20106;-80
2022/07/02 02:16:16;;;;;;;2.35;0.60;;;13.20;99.90;;;;;;4953136;28;20114;-80
2022/07/02 02:18:42;;;;;;;3.78;1.40;;;13.20;99.90;;;;;;4953385;28;20046;-80
2022/07/02 02:21:07;;;;;;;4.68;0.55;;;13.10;99.90;;;;;;4953162;28;20020;-80
2022/07/02 02:23:33;;;;;;;2.38;0.77;;;13.10;99.90;;;;;;4953183;28;20027;-80
2022/07/02 02:25:59;;;;;;;4.32;0.60;;;13.10;99.90;;;;;;4955499;28;20102;-80
2022/07/02 02:28:25;;;;;;;3.25;1.10;;;13.00;99.90;;;;;;4957021;28;20388;-80
2022/07/02 02:30:51;;;;;;;1.80;0.55;;;13.10;99.90;;;;;;4956287;28;20039;-80
2022/07/02 02:33:17;;;;;;;8.70;0.93;;;13.20;99.90;;;;;;4956802;28;20035;-81
2022/07/02 02:35:43;;;;;;;4.38;0.70;;;13.20;99.90;;;;;;4956888;28;20036;-80
2022/07/02 02:38:08;;;;;;;3.25;0.75;;;13.30;99.90;;;;;;4956979;28;20054;-80
2022/07/02 02:40:34;;;;;;;1.13;0.50;;;13.40;99.90;;;;;;4949787;28;20035;-80
2022/07/02 02:43:00;;;;;;;4.10;0.80;;;13.40;99.90;;;;;;4957020;28;20027;-80
2022/07/02 02:45:26;;;;;;;2.58;0.55;;;13.50;99.90;;;;;;4956962;28;20062;-81
2022/07/02 02:47:51;;;;;;;4.03;0.65;;;13.60;99.90;;;;;;4956590;28;20055;-82
2022/07/02 02:50:17;;;;;;;2.13;0.47;;;13.60;99.90;;;;;;4956424;28;20023;-80
2022/07/02 02:52:43;;;;;;;5.45;0.70;;;13.60;99.90;;;;;;4956482;28;20042;-81
2022/07/02 02:55:09;;;;;;;2.33;0.50;;;13.70;99.90;;;;;;4956498;28;20030;-81
2022/07/02 02:57:34;;;;;;;1.52;0.52;;;13.70;99.90;;;;;;4956665;28;20035;-81
2022/07/02 03:00:00;;;;;;;4.32;0.55;;;13.70;99.90;;;;;;4956733;28;20051;-80
2022/07/02 04:01:59;;;;;;;1.45;0.57;;;13.00;99.90;;;;;;5469449;23;20086;-81
2022/07/02 04:04:25;;;;;;;3.03;0.60;;;13.00;99.90;;;;;;4953850;28;20039;-81
2022/07/02 04:06:51;;;;;;;0.60;0.60;;;13.00;99.90;;;;;;4954951;28;20058;-81
2022/07/02 04:09:17;;;;;;;2.65;0.85;;;13.00;99.90;;;;;;4954918;28;20388;-81
2022/07/02 04:11:42;;;;;;;2.28;0.50;;;13.10;99.90;;;;;;4954982;28;20038;-80
2022/07/02 04:14:08;;;;;;;2.15;0.40;;;13.10;99.90;;;;;;4954818;28;20033;-80
2022/07/02 04:16:34;;;;;;;2.95;0.75;;;13.20;99.90;;;;;;4954783;28;20027;-81
2022/07/02 04:18:59;;;;;;;1.50;0.40;;;13.40;99.90;;;;;;4955101;28;20106;-81
2022/07/02 04:21:25;;;;;;;3.10;0.60;;;13.40;99.90;;;;;;4954832;28;20047;-82
2022/07/02 04:23:51;;;;;;;3.22;0.50;;;13.50;99.90;;;;;;4954878;28;20027;-81
2022/07/02 04:26:17;;;;;;;3.72;0.55;;;13.60;99.90;;;;;;4954396;28;20012;-81
2022/07/02 04:28:42;;;;;;;1.73;0.40;;;13.60;99.90;;;;;;4955005;28;20023;-81
2022/07/02 04:31:08;;;;;;;3.03;0.57;;;13.60;99.90;;;;;;4954475;28;20081;-81
2022/07/02 04:33:34;;;;;;;2.20;0.60;;;13.70;99.90;;;;;;4954325;28;20093;-81
2022/07/02 04:35:59;;;;;;;1.17;0.40;;;13.70;99.90;;;;;;4954774;28;20024;-82
2022/07/02 04:38:25;;;;;;;1.02;0.30;;;13.70;99.90;;;;;;4954634;28;20035;-80
2022/07/02 04:40:52;;;;;;;0.73;0.30;;;13.70;99.90;;;;;;4954415;28;20026;-81
2022/07/02 04:43:18;;;;;;;0.85;0.40;;;13.80;99.90;;;;;;4947761;28;20492;-80
2022/07/02 04:45:44;;;;;;;1.88;0.45;;;13.80;99.90;;;;;;4954522;28;20101;-81
2022/07/02 04:48:11;;;;;;;2.00;0.47;;;13.80;99.90;;;;;;4953184;28;20031;-81
2022/07/02 04:50:37;;;;;;;1.20;0.50;;;13.80;99.90;;;;;;4954277;28;20019;-81
2022/07/02 04:53:03;;;;;;;1.45;0.60;;;13.90;99.90;;;;;;4954090;28;20042;-81
2022/07/02 04:55:28;;;;;;;1.95;0.85;;;14.00;99.90;;;;;;4954129;28;20028;-81
2022/07/02 04:57:54;;;;;;;4.75;0.57;;;14.20;99.90;;;;;;4954022;28;20102;-81
2022/07/02 05:00:20;;;;;;;2.83;0.20;;;14.30;99.90;;;;;;4954475;28;20023;-81
2022/07/02 06:02:52;;;;;;;2.15;0.50;;;16.20;99.90;;;;;;5117075;23;19929;-82
2022/07/02 06:08:02;;;;;;;0.25;0.20;;;16.20;99.90;;;;;;4947944;28;20038;-81
2022/07/02 06:10:28;;;;;;;1.85;0.13;;;16.10;99.90;;;;;;4953452;28;20390;-82
2022/07/02 06:12:54;;;;;;;0.77;0.45;;;16.10;99.90;;;;;;4953071;28;20445;-81
2022/07/02 06:15:20;;;;;;;3.35;0.63;;;16.20;99.90;;;;;;4953375;28;20023;-82
2022/07/02 06:17:47;;;;;;;1.85;0.30;;;16.40;99.90;;;;;;4953084;28;20026;-82
2022/07/02 06:20:14;;;;;;;0.77;0.40;;;16.50;99.90;;;;;;4953341;28;20547;-82
2022/07/02 06:22:40;;;;;;;1.05;0.30;;;16.70;99.90;;;;;;4953207;28;20077;-81
2022/07/02 06:25:07;;;;;;;2.47;0.20;;;16.80;99.90;;;;;;4959770;28;20023;-82
2022/07/02 06:27:34;;;;;;;0.10;0.10;;;17.10;99.90;;;;;;4953130;28;20062;-81
2022/07/02 06:30:06;;;;;;;2.33;0.50;;;17.30;99.90;;;;;;4953084;28;20023;-82
2022/07/02 06:32:32;;;;;;;0.95;0.30;;;17.90;99.90;;;;;;4952680;28;20042;-83
2022/07/02 06:34:58;;;;;;;1.55;0.15;;;18.30;99.90;;;;;;4953060;28;20027;-82
2022/07/02 06:37:24;;;;;;;0.70;0.30;;;18.80;94.50;;;;;;4952875;28;20020;-83
2022/07/02 06:39:50;;;;;;;1.08;0.30;;;19.00;91.70;;;;;;4952867;28;20024;-83
2022/07/02 06:42:20;;;;;;;2.17;0.25;;;19.20;91.10;;;;;;4952348;28;20020;-82
2022/07/02 06:44:53;;;;;;;2.72;0.30;;;19.20;88.90;;;;;;4952819;28;20143;-82
2022/07/02 06:47:20;;;;;;;0.73;0.10;;;19.10;90.60;;;;;;4952814;28;20369;-80
2022/07/02 06:49:47;;;;;;;1.98;0.30;;;18.90;93.60;;;;;;4952577;28;20023;-81
2022/07/02 06:52:13;;;;;;;0.10;0.10;;;18.50;92.20;;;;;;4952792;28;20023;-82
2022/07/02 06:54:39;;;;;;;0.75;0.15;;;18.40;93.80;;;;;;4953040;28;20358;-83
2022/07/02 06:57:05;;;;;;;0.17;0.10;;;18.40;92.50;;;;;;4952928;28;20027;-82
2022/07/02 06:59:31;;;;;;;0.38;0.15;;;18.40;92.80;;;;;;4952908;28;20019;-83
2022/07/02 07:01:57;;;;;;;2.92;0.60;;;18.30;95.10;;;;;;4971636;23;20050;-77
2022/07/02 07:04:26;;;;;;;0.38;0.22;;;18.20;91.60;;;;;;4951904;28;20027;-76
2022/07/02 07:06:55;;;;;;;1.10;0.20;;;18.00;92.60;;;;;;4951359;28;20027;-77
2022/07/02 07:09:25;;;;;;;0.55;0.30;;;17.90;94.40;;;;;;4952786;28;20027;-76
2022/07/02 07:11:51;;;;;;;1.45;0.20;;;17.70;91.70;;;;;;4954489;28;20039;-76
2022/07/02 07:14:17;;;;;;;1.27;0.10;;;17.60;92.10;;;;;;4954985;28;20365;-77
2022/07/02 07:16:43;;;;;;;2.58;0.20;;;17.50;91.70;;;;;;4956357;28;20019;-77
2022/07/02 07:19:09;;;;;;;1.10;0.17;;;17.40;94.70;;;;;;4955776;28;20085;-78
2022/07/02 07:21:40;;;;;;;4.95;0.45;;;17.40;90.60;;;;;;4954586;28;20373;-80
2022/07/02 07:24:07;;;;;;;0.60;0.20;;;17.60;88.60;;;;;;4955998;28;20059;-80
2022/07/02 07:26:34;;;;;;;0.60;0.10;;;17.60;82.90;;;;;;4955917;28;20031;-81
2022/07/02 07:29:03;;;;;;;0.10;0.10;;;17.60;85.10;;;;;;4954396;28;20062;-79
2022/07/02 07:31:29;;;;;;;2.80;0.50;;;17.60;82.70;;;;;;4947698;28;20078;-80
2022/07/02 07:33:56;;;;;;;0.68;0.20;;;17.60;85.60;;;;;;4955020;28;20713;-80
2022/07/02 07:36:24;;;;;;;0.95;0.30;;;17.70;88.30;;;;;;4954423;28;20377;-81
2022/07/02 07:38:51;;;;;;;0.20;0.10;;;17.80;86.20;;;;;;4955489;28;20035;-80
2022/07/02 07:41:18;;;;;;;2.38;0.47;;;17.80;90.40;;;;;;4947124;28;20027;-80
2022/07/02 07:43:44;;;;;;;1.33;0.30;;;17.80;90.20;;;;;;4948767;28;20540;-80
2022/07/02 07:46:10;;;;;;;1.65;0.20;;;17.80;91.80;;;;;;4946769;28;20043;-81
2022/07/02 07:48:36;;;;;;;0.10;0.10;;;17.70;92.30;;;;;;4946340;28;20066;-78
2022/07/02 07:51:02;;;;;;;1.15;0.50;;;17.70;94.80;;;;;;4947728;28;20071;-78
2022/07/02 07:53:28;;;;;;;0.77;0.20;;;17.60;93.30;;;;;;4946603;28;20061;-80
2022/07/02 07:55:54;;;;;;;1.38;0.28;;;17.60;99.40;;;;;;4947169;28;20473;-77
2022/07/02 07:58:20;;;;;;;5.53;0.40;;;17.60;99.90;;;;;;4946044;28;20031;-80
2022/07/02 08:00:46;;;;;;;1.95;0.57;;;17.60;99.90;;;;;;4950118;28;20025;-80
2022/07/02 09:31:14;;;;;;;1.17;0.15;;;24.50;59.00;;;;;;6002420;23;20046;-78
2022/07/02 09:33:40;;;;;;;1.52;0.13;;;24.70;61.20;;;;;;4970540;28;20034;-77
2022/07/02 09:36:12;;;;;;;2.53;0.20;;;25.00;59.70;;;;;;4972079;28;20030;-79
2022/07/02 09:38:48;;;;;;;0.60;0.10;;;25.50;56.20;;;;;;4972337;28;20035;-77
2022/07/02 09:41:18;;;;;;;0.95;0.10;;;25.60;53.70;;;;;;4971743;28;20046;-78
2022/07/02 09:43:45;;;;;;;0.73;0.15;;;25.10;54.90;;;;;;4972274;28;20018;-78
2022/07/02 09:46:19;;;;;;;0.25;0.20;;;25.50;57.80;;;;;;4972352;28;20038;-78
2022/07/02 09:48:46;;;;;;;3.67;0.20;;;25.80;50.10;;;;;;4972298;28;20031;-78
2022/07/02 09:51:13;;;;;;;1.23;0.10;;;25.40;52.50;;;;;;4972832;28;20455;-78
2022/07/02 09:53:51;;;;;;;0.57;0.10;;;25.80;52.70;;;;;;4968177;28;20053;-78
2022/07/02 09:56:18;;;;;;;0.57;0.20;;;25.70;52.30;;;;;;4962467;28;20047;-77
2022/07/02 09:58:44;;;;;;;2.47;0.20;;;25.60;51.60;;;;;;4969181;28;20077;-78
2022/07/02 10:01:09;;;;;;;1.40;0.20;;;26.10;57.90;;;;;;4967602;28;20467;-78
2022/07/02 10:03:56;;;;;;;0.57;0.15;;;26.40;50.60;;;;;;4959234;28;20047;-81
2022/07/02 10:06:21;;;;;;;1.58;0.13;;;26.90;51.50;;;;;;4967225;28;20023;-80
2022/07/02 10:08:48;;;;;;;1.33;0.30;;;27.30;50.00;;;;;;4972274;28;20218;-78
2022/07/02 10:11:15;;;;;;;0.15;0.03;;;27.40;48.20;;;;;;4971381;28;20034;-77
2022/07/02 10:13:42;;;;;;;1.17;0.30;;;27.40;50.40;;;;;;4972601;28;20027;-78
2022/07/02 10:16:14;;;;;;;2.17;0.10;;;27.60;47.00;;;;;;4972138;28;20027;-79
2022/07/02 10:18:42;;;;;;;0.60;0.15;;;27.30;48.50;;;;;;4971483;28;20479;-77
2022/07/02 10:21:12;;;;;;;1.92;0.20;;;28.00;48.50;;;;;;4966322;28;20106;-78
2022/07/02 10:23:45;;;;;;;2.03;0.10;;;28.60;48.80;;;;;;4972236;28;20023;-78
2022/07/02 10:26:12;;;;;;;0.73;0.20;;;29.40;45.90;;;;;;4965879;28;20031;-78
2022/07/02 10:28:38;;;;;;;1.23;0.20;;;28.90;40.90;;;;;;4971149;28;20027;-79
2022/07/02 11:33:16;;;;;;;0.45;0.10;;;31.70;37.20;;;;;;5065014;23;19923;-77
2022/07/02 11:35:43;;;;;;;0.20;0.10;;;31.10;35.00;;;;;;4946517;28;20031;-77
2022/07/02 11:38:08;;;;;;;0.85;0.40;;;30.70;37.20;;;;;;4942626;28;20424;-78
2022/07/02 11:40:34;;;;;;;2.30;0.28;;;31.00;38.30;;;;;;4941796;28;20102;-77
2022/07/02 11:43:00;;;;;;;0.88;0.20;;;31.50;39.50;;;;;;4945482;28;20128;-76
2022/07/02 11:45:26;;;;;;;0.88;0.20;;;32.10;38.30;;;;;;4943606;28;20020;-77
2022/07/02 11:47:52;;;;;;;0.55;0.00;;;32.20;35.40;;;;;;4953280;28;20117;-78
2022/07/02 11:50:31;;;;;;;0.30;0.10;;;32.00;37.50;;;;;;4954428;28;20111;-78
2022/07/02 11:52:57;;;;;;;1.00;0.10;;;32.60;35.30;;;;;;4952224;28;20619;-77
2022/07/02 11:55:24;;;;;;;2.90;0.20;;;33.60;37.10;;;;;;4955265;28;20044;-77
2022/07/02 11:57:51;;;;;;;1.23;0.10;;;34.00;34.90;;;;;;4954374;28;20493;-77
2022/07/02 12:00:18;;;;;;;1.55;0.10;;;33.40;36.10;;;;;;4955138;28;20030;-78
2022/07/02 12:02:44;;;;;;;1.35;0.20;;;31.40;36.80;;;;;;4955039;28;20016;-77
2022/07/02 12:05:17;;;;;;;1.35;0.10;;;30.70;40.00;;;;;;4946552;28;20023;-78
2022/07/02 12:07:44;;;;;;;0.95;0.13;;;29.70;39.50;;;;;;4953224;28;20019;-78
2022/07/02 12:10:11;;;;;;;2.47;0.30;;;30.40;43.30;;;;;;4955048;28;20028;-77
2022/07/02 12:12:37;;;;;;;0.43;0.10;;;31.40;41.20;;;;;;4954717;28;20488;-79
2022/07/02 12:15:03;;;;;;;1.55;0.50;;;32.20;40.80;;;;;;4954862;28;20046;-77
2022/07/02 12:17:36;;;;;;;0.55;0.10;;;32.90;38.90;;;;;;4952247;28;20428;-80
2022/07/02 12:20:06;;;;;;;0.10;0.00;;;33.00;40.10;;;;;;4954393;28;20034;-79
2022/07/02 12:22:33;;;;;;;2.67;0.38;;;32.40;38.10;;;;;;4954586;28;20019;-78
2022/07/02 12:24:59;;;;;;;1.00;0.40;;;32.50;37.70;;;;;;4953757;28;20015;-79
2022/07/02 12:27:25;;;;;;;2.70;0.55;;;32.40;37.10;;;;;;4954498;28;20082;-79
2022/07/02 12:29:58;;;;;;;1.33;0.20;;;30.90;39.90;;;;;;4954392;28;20023;-79
2022/07/02 13:31:59;;;;;;;0.80;0.13;;;31.10;39.00;;;;;;5759785;23;20049;-78
2022/07/02 13:34:28;;;;;;;2.35;0.20;;;30.60;38.40;;;;;;5006606;28;20030;-80
2022/07/02 13:36:55;;;;;;;1.27;0.32;;;30.10;39.50;;;;;;5011720;28;20018;-81
2022/07/02 13:39:21;;;;;;;1.65;0.20;;;30.00;39.80;;;;;;5011612;28;20022;-82
2022/07/02 13:41:47;;;;;;;0.73;0.10;;;29.50;39.30;;;;;;5006834;28;20065;-80
2022/07/02 13:44:13;;;;;;;0.28;0.20;;;28.40;41.10;;;;;;4985311;28;20030;-80
2022/07/02 13:46:39;;;;;;;0.47;0.10;;;27.50;45.10;;;;;;4991747;28;20545;-81
2022/07/02 13:49:04;;;;;;;1.58;0.30;;;27.30;45.50;;;;;;4990750;28;20109;-81
2022/07/02 13:51:31;;;;;;;2.38;0.28;;;27.90;45.60;;;;;;4992039;28;20475;-81
2022/07/02 13:53:56;;;;;;;2.90;0.20;;;28.70;46.30;;;;;;4991739;28;20037;-80
2022/07/02 13:56:23;;;;;;;1.90;0.20;;;29.70;44.40;;;;;;4992580;28;20537;-80
2022/07/02 13:58:49;;;;;;;2.58;0.20;;;31.30;42.70;;;;;;4992148;28;20617;-79
2022/07/02 14:01:14;;;;;;;0.40;0.10;;;32.80;39.30;;;;;;4991900;28;20018;-80
2022/07/02 14:03:40;;;;;;;1.17;0.10;;;33.70;38.50;;;;;;4991071;28;20050;-78
2022/07/02 14:06:06;;;;;;;3.40;0.28;;;33.00;37.60;;;;;;4991369;28;20026;-79
2022/07/02 14:08:32;;;;;;;1.55;0.30;;;32.10;38.80;;;;;;4991459;28;20026;-78
2022/07/02 14:10:58;;;;;;;0.40;0.30;;;30.70;38.20;;;;;;4992112;28;20030;-78
2022/07/02 14:13:24;;;;;;;0.63;0.10;;;29.80;40.40;;;;;;4991740;28;20122;-82
2022/07/02 14:15:49;;;;;;;1.92;0.20;;;28.80;42.40;;;;;;4992000;28;20456;-77
2022/07/02 14:18:15;;;;;;;1.52;0.60;;;28.40;44.20;;;;;;4991496;28;20034;-78
2022/07/02 14:20:41;;;;;;;0.47;0.22;;;28.50;46.00;;;;;;4993392;28;20042;-79
2022/07/02 14:23:07;;;;;;;1.77;0.20;;;29.10;46.40;;;;;;4995654;28;20061;-78
2022/07/02 14:25:33;;;;;;;0.38;0.10;;;29.10;44.20;;;;;;4995543;28;20062;-78
2022/07/02 14:27:59;;;;;;;0.73;0.20;;;29.70;45.30;;;;;;4995491;28;20089;-78
2022/07/02 14:30:25;;;;;;;2.40;0.35;;;30.00;43.00;;;;;;4995493;28;20029;-76
2022/07/02 15:32:24;;;;;;;1.75;0.20;;;30.10;42.40;;;;;;5566805;23;20047;-79
2022/07/02 15:34:51;;;;;;;1.27;0.13;;;30.20;43.20;;;;;;4956200;28;20036;-80
2022/07/02 15:37:17;;;;;;;1.60;0.22;;;29.70;42.80;;;;;;4955975;28;20480;-81
2022/07/02 15:39:47;;;;;;;2.65;0.10;;;29.00;43.70;;;;;;4955854;28;20034;-81
2022/07/02 15:42:18;;;;;;;1.17;0.10;;;29.20;44.10;;;;;;4955700;28;20027;-82
2022/07/02 15:44:45;;;;;;;1.15;0.20;;;29.30;43.20;;;;;;4955719;28;20496;-81
2022/07/02 15:47:11;;;;;;;0.40;0.20;;;28.80;40.80;;;;;;4953161;28;20484;-83
2022/07/02 15:49:43;;;;;;;0.60;0.30;;;28.20;43.20;;;;;;4953548;28;20031;-80
2022/07/02 15:52:21;;;;;;;1.13;0.38;;;27.10;43.50;;;;;;4960664;28;20027;-83
2022/07/02 15:54:50;;;;;;;1.90;0.43;;;26.70;45.90;;;;;;4953803;28;20068;-80
2022/07/02 15:57:23;;;;;;;1.98;0.20;;;26.40;45.30;;;;;;4955659;28;20055;-82
2022/07/02 15:59:52;;;;;;;1.95;0.30;;;25.90;47.60;;;;;;4954468;28;20546;-83
2022/07/02 16:02:24;;;;;;;1.15;0.32;;;25.40;48.70;;;;;;4954906;28;20059;-83
2022/07/02 16:04:51;;;;;;;;;;;24.80;49.60;;;;;;4955191;28;20102;-90
2022/07/02 16:07:20;;;;;;;1.08;0.28;;;24.20;49.80;;;;;;4949940;28;19910;-85
2022/07/02 16:09:47;;;;;;;0.82;0.30;;;23.80;51.60;;;;;;4962376;28;20026;-85
2022/07/02 16:12:14;;;;;;;0.55;0.20;;;23.40;50.90;;;;;;4955130;28;20022;-88
2022/07/02 16:14:43;;;;;;;0.68;0.13;;;23.10;52.30;;;;;;4955302;28;20027;-88
2022/07/02 16:17:10;;;;;;;1.67;0.43;;;22.90;54.20;;;;;;4953606;28;20079;-84
2022/07/02 16:19:38;;;;;;;1.55;0.20;;;22.40;57.00;;;;;;4973549;28;20087;-82
2022/07/02 16:22:05;;;;;;;2.22;0.30;;;22.10;58.30;;;;;;4952878;28;20019;-88
2022/07/02 16:24:31;;;;;;;0.80;0.32;;;22.00;57.30;;;;;;4955564;28;20112;-88
2022/07/02 16:26:57;;;;;;;0.98;0.30;;;21.80;58.50;;;;;;4961445;28;20015;-90
2022/07/02 16:29:25;;;;;;;1.08;0.20;;;21.80;59.00;;;;;;4961460;28;20487;-87
2022/07/02 16:31:55;;;;;;;0.50;0.20;;;21.70;60.30;;;;;;4952468;28;20550;-88
2022/07/02 16:34:34;;;;;;;1.48;0.50;;;21.60;60.80;;;;;;4953802;28;20035;-84
2022/07/02 16:37:07;;;;;;;1.30;0.30;;;21.40;61.70;;;;;;4954050;28;20019;-83
2022/07/02 16:39:38;;;;;;;5.03;0.50;;;21.40;65.00;;;;;;4954733;28;20027;-86
2022/07/02 16:42:04;;;;;;;0.93;0.25;;;21.40;64.20;;;;;;4954412;28;20023;-85
2022/07/02 16:44:36;;;;;;;2.35;0.30;;;21.50;65.10;;;;;;4954222;28;20064;-86
2022/07/02 16:47:03;;;;;;;2.53;0.22;;;21.40;64.40;;;;;;4954410;28;20062;-82
2022/07/02 16:49:34;;;;;;;4.63;0.47;;;21.40;66.10;;;;;;4954835;28;20024;-87
2022/07/02 16:52:06;;;;;;;1.83;0.30;;;21.30;66.60;;;;;;4954514;28;20023;-89
2022/07/02 16:54:33;;;;;;;2.72;0.35;;;21.10;66.50;;;;;;4954538;28;20090;-82
2022/07/02 16:56:59;;;;;;;1.35;0.32;;;20.90;68.50;;;;;;4952948;28;20031;-81
2022/07/02 16:59:27;;;;;;;4.15;0.50;;;20.90;69.80;;;;;;4956133;28;20541;-81
2022/07/02 18:03:53;;;;;;;1.23;0.45;;;18.60;99.90;;;;;;4950016;28;20092;-78
2022/07/02 18:06:19;;;;;;;3.15;0.40;;;18.60;99.90;;;;;;4952104;28;20391;-77
2022/07/02 18:08:45;;;;;;;5.05;0.65;;;18.50;99.90;;;;;;4950823;28;20038;-79
2022/07/02 18:11:11;;;;;;;1.35;0.40;;;18.40;99.90;;;;;;4952801;28;20019;-80
2022/07/02 18:13:37;;;;;;;4.35;0.63;;;18.40;99.90;;;;;;4953171;28;20027;-79
2022/07/02 18:16:03;;;;;;;3.30;0.80;;;18.30;99.90;;;;;;4953284;28;20026;-79
2022/07/02 18:18:29;;;;;;;0.52;0.40;;;18.30;99.90;;;;;;4952330;28;20015;-80
2022/07/02 18:20:55;;;;;;;1.85;1.42;;;18.10;99.90;;;;;;4958953;28;20034;-79
2022/07/02 18:23:21;;;;;;;2.22;0.40;;;18.10;99.90;;;;;;4952329;28;20102;-80
2022/07/02 18:25:47;;;;;;;2.92;0.82;;;18.00;99.90;;;;;;4953308;28;20028;-80
2022/07/02 18:28:13;;;;;;;1.83;0.47;;;18.00;99.90;;;;;;4952935;28;20024;-79
2022/07/02 18:30:40;;;;;;;2.33;0.80;;;18.00;99.90;;;;;;4952528;28;20038;-79
2022/07/02 18:33:06;;;;;;;1.38;0.50;;;17.80;99.90;;;;;;4948939;28;20093;-79
2022/07/02 18:35:33;;;;;;;3.13;0.65;;;17.70;99.90;;;;;;4952604;28;20043;-80
2022/07/02 18:37:58;;;;;;;1.42;0.73;;;17.70;99.90;;;;;;4952378;28;20019;-80
2022/07/02 18:40:24;;;;;;;6.05;0.70;;;17.70;99.90;;;;;;4946361;28;20496;-80
2022/07/02 18:42:50;;;;;;;4.60;0.75;;;17.60;99.90;;;;;;4948695;28;20023;-84
2022/07/02 18:45:16;;;;;;;1.95;0.77;;;17.50;99.90;;;;;;4955486;28;20122;-83
2022/07/02 18:47:42;;;;;;;1.02;0.75;;;17.40;99.90;;;;;;4962473;28;20019;-83
2022/07/02 18:50:08;;;;;;;1.75;0.65;;;17.30;99.90;;;;;;4949022;28;20039;-83
2022/07/02 18:52:35;;;;;;;4.32;1.00;;;17.20;99.90;;;;;;4948532;28;20034;-82
2022/07/02 18:55:00;;;;;;;1.65;0.73;;;17.10;99.90;;;;;;4940919;28;20468;-82
2022/07/02 18:57:26;;;;;;;4.82;0.60;;;17.00;99.90;;;;;;4948773;28;20031;-86
2022/07/02 18:59:52;;;;;;;3.45;0.77;;;16.90;99.90;;;;;;4949338;28;20042;-78
2022/07/02 20:01:53;;;;;;;4.80;0.85;;;16.50;99.90;;;;;;5955542;23;20024;-84
2022/07/02 20:04:20;;;;;;;6.50;1.48;;;16.50;99.90;;;;;;4962256;28;20046;-83
2022/07/02 20:06:46;;;;;;;3.25;1.20;;;16.50;99.90;;;;;;4944571;28;20095;-85
2022/07/02 20:09:12;;;;;;;4.40;1.45;;;16.50;99.90;;;;;;4956707;28;20570;-78
2022/07/02 20:11:39;;;;;;;4.00;1.30;;;16.40;99.90;;;;;;4943481;28;20510;-78
2022/07/02 20:14:05;;;;;;;6.20;2.22;;;16.40;99.90;;;;;;4947145;28;20432;-79
2022/07/02 20:16:32;;;;;;;2.80;1.13;;;16.40;99.90;;;;;;4942262;28;20015;-79
2022/07/02 20:18:58;;;;;;;3.20;1.25;;;16.30;99.90;;;;;;4942874;28;20023;-79
2022/07/02 20:21:23;;;;;;;3.55;1.15;;;16.30;99.90;;;;;;4940363;28;20031;-78
2022/07/02 20:23:49;;;;;;;5.57;1.10;;;16.30;99.90;;;;;;4950809;28;20035;-78
2022/07/02 20:26:15;;;;;;;4.55;1.08;;;16.30;99.90;;;;;;4951341;28;20034;-79
2022/07/02 20:28:42;;;;;;;2.17;0.70;;;16.30;99.90;;;;;;4950846;28;20063;-78
2022/07/02 20:31:08;;;;;;;3.17;1.00;;;16.40;99.90;;;;;;4948799;28;20400;-78
2022/07/02 20:33:34;;;;;;;4.03;1.80;;;16.40;99.90;;;;;;4943544;28;20063;-79
2022/07/02 20:35:59;;;;;;;2.22;1.27;;;16.40;99.90;;;;;;4942655;28;20019;-78
2022/07/02 20:38:25;;;;;;;3.03;1.30;;;16.40;99.90;;;;;;4950758;28;20027;-78
2022/07/02 20:40:51;;;;;;;3.88;1.10;;;16.40;99.90;;;;;;4950917;28;20035;-77
2022/07/02 20:43:17;;;;;;;6.95;1.10;;;16.40;99.90;;;;;;4950804;28;20113;-78
2022/07/02 20:45:42;;;;;;;2.13;0.80;;;16.40;99.90;;;;;;4950666;28;20121;-77
2022/07/02 20:48:09;;;;;;;2.47;1.10;;;16.40;99.90;;;;;;4950290;28;20032;-76
2022/07/02 20:50:34;;;;;;;2.30;1.25;;;16.40;99.90;;;;;;4949842;28;20026;-81
2022/07/02 20:53:00;;;;;;;7.53;1.25;;;16.30;99.90;;;;;;4949628;28;20035;-81
2022/07/02 20:55:26;;;;;;;4.68;1.00;;;16.40;99.90;;;;;;4950998;28;20107;-82
2022/07/02 20:57:52;;;;;;;4.00;1.10;;;16.40;99.90;;;;;;4956608;28;20023;-79
2022/07/02 21:00:18;;;;;;;1.58;0.95;;;16.40;99.90;;;;;;4951000;28;20380;-80
2022/07/02 22:02:17;;;;;;;0.30;0.30;;;16.00;99.90;;;;;;5792575;23;20050;-77
2022/07/02 22:04:43;;;;;;;2.05;0.57;;;15.90;99.90;;;;;;5003895;28;20071;-77
2022/07/02 22:07:09;;;;;;;3.30;0.73;;;15.90;99.90;;;;;;5011387;28;20038;-77
2022/07/02 22:09:35;;;;;;;4.70;1.40;;;15.90;99.90;;;;;;5011744;28;20029;-76
2022/07/02 22:12:01;;;;;;;3.20;0.80;;;15.80;99.90;;;;;;5008418;28;20023;-76
2022/07/02 22:14:27;;;;;;;2.63;0.50;;;15.80;99.90;;;;;;4992082;28;20092;-76
2022/07/02 22:16:53;;;;;;;1.17;0.50;;;15.80;99.90;;;;;;4992187;28;20014;-77
2022/07/02 22:19:20;;;;;;;1.40;0.57;;;15.80;99.90;;;;;;4992179;28;20657;-77
2022/07/02 22:21:46;;;;;;;0.73;0.43;;;15.80;99.90;;;;;;4991741;28;20037;-76
2022/07/02 22:24:11;;;;;;;2.95;0.80;;;15.80;99.90;;;;;;4991956;28;20464;-75
2022/07/02 22:26:37;;;;;;;2.40;0.47;;;15.80;99.90;;;;;;4991970;28;20474;-76
2022/07/02 22:29:03;;;;;;;0.45;0.45;;;15.70;99.90;;;;;;4992029;28;20489;-77
2022/07/02 22:31:30;;;;;;;2.55;0.57;;;15.70;99.90;;;;;;4983233;28;20034;-76
2022/07/02 22:33:57;;;;;;;1.08;0.50;;;15.60;99.90;;;;;;4990236;28;20044;-76
2022/07/02 22:36:23;;;;;;;1.95;0.47;;;15.50;99.90;;;;;;4991118;28;20470;-76
2022/07/02 22:38:48;;;;;;;1.45;0.45;;;15.50;99.90;;;;;;4991269;28;20033;-76
2022/07/02 22:41:23;;;;;;;0.40;0.40;;;15.40;99.90;;;;;;4992117;28;20037;-76
2022/07/02 22:43:53;;;;;;;2.13;0.60;;;15.20;99.90;;;;;;4995525;28;20025;-76
2022/07/02 22:46:19;;;;;;;0.95;0.40;;;15.10;99.90;;;;;;4995447;28;20617;-76
2022/07/02 22:48:45;;;;;;;0.95;0.47;;;15.00;99.90;;;;;;4988634;28;20084;-75
2022/07/02 22:51:12;;;;;;;0.65;0.50;;;14.90;99.90;;;;;;4995513;28;20050;-76
2022/07/02 22:53:38;;;;;;;2.05;0.60;;;14.80;99.90;;;;;;4995376;28;20034;-76
2022/07/02 22:56:04;;;;;;;1.05;0.47;;;14.70;99.90;;;;;;4994881;28;20034;-76
2022/07/02 22:58:30;;;;;;;1.48;0.70;;;14.70;99.90;;;;;;4993958;28;20054;-76
2022/07/02 23:00:57;;;;;;;1.77;0.50;;;14.60;99.90;;;;;;4995140;28;20366;-75
